Time;durP1;ratioP1;P1;durP2;ratioP2;P2;SDS_P1;SDS_P2;PMS_P1;PMS_P2;Temp;Humidity;BMP_temperature;BMP_pressure;BME280_temperature;BME280_humidity;BME280_pressure;Samples;Min_cycle;Max_cycle;Signal;HPM_P1;HPM_P2
2021/12/30 00:01:22;;;;;;;10.02;2.28;;;;;;;16.33;58.84;100733.38;5029748;28;20065;-79
2021/12/30 00:03:51;;;;;;;9.73;2.33;;;;;;;16.30;58.92;100756.47;5039602;28;20060;-78
2021/12/30 00:06:21;;;;;;;7.32;2.67;;;;;;;16.30;58.97;100750.13;5022176;28;20041;-78
2021/12/30 00:08:50;;;;;;;6.75;2.50;;;;;;;16.31;58.52;100776.50;5044298;28;20103;-78
2021/12/30 00:11:17;;;;;;;8.50;2.30;;;;;;;16.29;58.51;100776.66;5027112;28;20076;-80
2021/12/30 00:13:47;;;;;;;7.32;2.40;;;;;;;16.28;58.72;100780.41;5028953;28;20065;-80
2021/12/30 00:16:16;;;;;;;7.97;2.45;;;;;;;16.29;58.52;100790.38;5028645;28;20053;-80
2021/12/30 00:18:43;;;;;;;7.07;2.20;;;;;;;16.28;58.78;100785.00;5034516;28;20404;-80
2021/12/30 00:21:10;;;;;;;7.53;2.60;;;;;;;16.26;58.83;100776.94;5031328;28;20076;-78
2021/12/30 00:23:37;;;;;;;9.90;3.10;;;;;;;16.25;58.66;100786.16;5013444;28;20092;-78
2021/12/30 00:26:04;;;;;;;7.15;2.30;;;;;;;16.25;58.19;100780.69;5026044;28;20570;-78
2021/12/30 00:28:31;;;;;;;7.38;2.83;;;;;;;16.24;58.29;100792.63;5025301;28;20582;-78
2021/12/30 00:30:58;;;;;;;7.38;2.42;;;;;;;16.24;58.25;100794.50;5028724;28;20124;-78
2021/12/30 00:33:27;;;;;;;8.95;2.63;;;;;;;16.23;58.28;100801.84;5033164;28;20130;-78
2021/12/30 00:35:54;;;;;;;11.07;2.90;;;;;;;16.23;58.58;100809.22;5030126;28;20057;-80
2021/12/30 00:38:21;;;;;;;8.30;3.20;;;;;;;16.21;58.32;100801.16;5018971;28;20136;-80
2021/12/30 00:40:48;;;;;;;8.93;3.00;;;;;;;16.21;58.21;100811.25;5042440;28;20132;-80
2021/12/30 00:43:14;;;;;;;8.48;2.60;;;;;;;16.18;58.58;100809.63;5033382;28;20037;-78
2021/12/30 00:45:43;;;;;;;7.05;2.58;;;;;;;16.19;58.38;100819.59;5027301;28;20100;-78
2021/12/30 00:48:10;;;;;;;8.20;2.75;;;;;;;16.17;58.36;100818.88;5028794;28;20057;-80
2021/12/30 00:50:39;;;;;;;7.68;2.60;;;;;;;16.18;58.32;100828.81;5029398;28;20092;-80
2021/12/30 00:53:07;;;;;;;8.13;2.10;;;;;;;16.18;58.55;100831.56;5022007;28;20080;-80
2021/12/30 00:55:34;;;;;;;7.70;2.58;;;;;;;16.17;58.53;100835.28;5033213;28;20072;-80
2021/12/30 00:58:02;;;;;;;9.75;2.88;;;;;;;16.17;58.31;100834.44;5030895;28;20080;-78
2021/12/30 01:00:29;;;;;;;8.10;2.42;;;;;;;16.16;58.34;100835.44;5028601;28;20053;-79
2021/12/30 01:02:56;;;;;;;8.07;2.88;;;;;;;16.16;58.22;100832.69;5027831;28;20045;-79
2021/12/30 01:05:23;;;;;;;8.25;2.65;;;;;;;16.15;58.33;100840.03;5016061;28;20060;-81
2021/12/30 01:07:50;;;;;;;10.55;3.22;;;;;;;16.14;58.16;100832.00;5009857;28;20103;-78
2021/12/30 01:10:20;;;;;;;10.48;2.80;;;;;;;16.14;58.28;100840.19;5028466;28;20103;-78
2021/12/30 01:12:48;;;;;;;8.32;2.50;;;;;;;16.12;58.52;100848.56;5027723;28;20132;-78
2021/12/30 01:15:17;;;;;;;8.80;2.22;;;;;;;16.12;58.25;100844.94;5028856;28;20052;-78
2021/12/30 01:20:12;;;;;;;7.35;2.70;;;;;;;16.11;58.33;100835.00;5028223;28;20046;-78
2021/12/30 01:22:39;;;;;;;8.70;2.60;;;;;;;16.10;58.37;100839.59;5028184;28;20103;-79
2021/12/30 01:25:08;;;;;;;8.38;2.47;;;;;;;16.11;58.31;100845.94;5030178;28;20053;-79
2021/12/30 01:27:40;;;;;;;8.75;2.70;;;;;;;16.12;58.39;100853.16;5026649;28;20072;-79
2021/12/30 01:30:10;;;;;;;5.38;2.35;;;;;;;16.12;58.53;100845.81;5010761;28;20050;-79
2021/12/30 01:32:37;;;;;;;7.57;2.47;;;;;;;16.11;58.57;100854.16;5032409;28;20106;-78
2021/12/30 01:35:08;;;;;;;7.63;2.40;;;;;;;16.13;58.71;100855.78;5031617;28;20053;-79
2021/12/30 01:37:35;;;;;;;10.43;2.38;;;;;;;16.13;58.21;100863.13;5026646;28;20076;-79
2021/12/30 01:40:03;;;;;;;7.25;2.22;;;;;;;16.14;58.33;100871.16;5024763;28;20060;-79
2021/12/30 01:42:32;;;;;;;5.78;2.10;;;;;;;16.14;58.38;100868.44;5026164;28;20124;-79
2021/12/30 01:44:58;;;;;;;7.43;2.28;;;;;;;16.15;58.28;100872.03;5028864;28;20087;-78
2021/12/30 01:47:25;;;;;;;8.27;2.38;;;;;;;16.16;58.46;100879.25;5027259;28;20053;-79
2021/12/30 01:49:53;;;;;;;9.45;2.35;;;;;;;16.17;58.50;100881.00;5010387;28;20132;-78
2021/12/30 01:52:20;;;;;;;8.13;2.47;;;;;;;16.16;58.35;100882.88;5017389;28;20076;-78
2021/12/30 01:54:47;;;;;;;7.22;2.30;;;;;;;16.16;58.63;100885.59;5017249;28;20042;-79
2021/12/30 01:57:14;;;;;;;7.43;2.20;;;;;;;16.17;58.82;100872.78;5020161;28;20077;-79
2021/12/30 01:59:44;;;;;;;6.53;2.20;;;;;;;16.19;58.47;100870.78;5005153;28;20670;-78
2021/12/30 02:02:12;;;;;;;8.48;2.67;;;;;;;16.19;58.79;100868.03;5010385;28;20103;-79
2021/12/30 02:04:39;;;;;;;8.30;2.25;;;;;;;16.19;58.32;100871.63;5007869;28;20046;-79
2021/12/30 02:07:06;;;;;;;8.43;2.35;;;;;;;16.19;58.68;100863.44;5026289;28;20042;-79
2021/12/30 02:09:32;;;;;;;5.38;2.13;;;;;;;16.20;58.46;100861.56;5025995;28;20053;-79
2021/12/30 02:12:00;;;;;;;7.25;2.30;;;;;;;16.21;58.79;100864.16;5037179;28;20073;-78
2021/12/30 02:14:30;;;;;;;8.93;2.55;;;;;;;16.21;58.50;100858.69;5032152;28;20049;-79
2021/12/30 02:16:57;;;;;;;6.03;2.33;;;;;;;16.22;58.72;100860.41;5031436;28;20126;-78
2021/12/30 02:19:24;;;;;;;6.38;2.15;;;;;;;16.22;58.76;100860.41;5022840;28;20404;-78
2021/12/30 02:21:51;;;;;;;5.53;2.15;;;;;;;16.23;58.59;100864.00;5033842;28;20136;-79
2021/12/30 02:24:17;;;;;;;5.88;2.08;;;;;;;16.24;58.39;100868.47;5029660;28;20050;-79
2021/12/30 02:26:44;;;;;;;5.93;2.03;;;;;;;16.24;58.64;100861.13;5030230;28;20080;-79
2021/12/30 02:29:11;;;;;;;6.72;2.08;;;;;;;16.25;58.81;100854.66;5038944;28;20115;-78
2021/12/30 02:31:39;;;;;;;7.60;2.38;;;;;;;16.25;58.54;100862.88;5030457;28;20121;-78
2021/12/30 02:34:06;;;;;;;7.85;2.50;;;;;;;16.28;58.86;100867.22;5031803;28;20049;-79
2021/12/30 02:36:36;;;;;;;6.75;2.35;;;;;;;16.30;58.25;100856.97;5037736;28;20363;-79
2021/12/30 02:39:05;;;;;;;6.97;2.20;;;;;;;16.30;58.58;100846.91;5036745;28;20501;-79
2021/12/30 02:41:34;;;;;;;8.38;2.78;;;;;;;16.29;58.54;100858.84;5029584;28;20172;-79
2021/12/30 02:44:02;;;;;;;6.22;2.00;;;;;;;16.31;58.61;100855.94;5033809;28;20152;-79
2021/12/30 02:46:29;;;;;;;5.15;1.80;;;;;;;16.29;58.74;100850.63;5039832;28;20123;-78
2021/12/30 02:48:57;;;;;;;6.95;2.40;;;;;;;16.32;58.28;100860.44;5038566;28;20055;-79
2021/12/30 02:51:24;;;;;;;7.63;2.40;;;;;;;16.32;58.49;100858.56;5039849;28;20051;-79
2021/12/30 02:53:51;;;;;;;8.00;2.83;;;;;;;16.32;58.75;100861.28;5033785;28;20136;-79
2021/12/30 02:56:22;;;;;;;9.80;2.33;;;;;;;16.34;58.54;100870.25;5043179;28;20120;-78
2021/12/30 02:58:49;;;;;;;6.43;2.17;;;;;;;16.33;58.47;100868.50;5012479;28;20095;-79
2021/12/30 03:01:19;;;;;;;5.93;1.98;;;;;;;16.35;58.91;100868.38;5009697;28;20037;-79
2021/12/30 03:03:46;;;;;;;6.20;1.88;;;;;;;16.34;58.72;100867.50;5031961;28;20042;-79
2021/12/30 03:06:15;;;;;;;6.75;2.35;;;;;;;16.36;58.47;100870.13;5030742;28;20096;-79
2021/12/30 03:08:43;;;;;;;6.40;2.58;;;;;;;16.38;58.78;100872.72;5030388;28;20076;-79
2021/12/30 03:11:10;;;;;;;6.50;2.47;;;;;;;16.38;58.91;100881.81;5041317;28;20143;-78
2021/12/30 03:13:41;;;;;;;5.00;2.20;;;;;;;16.39;58.71;100886.25;5035563;28;20100;-78
2021/12/30 03:16:34;;;;;;;7.28;2.00;;;;;;;16.41;59.02;100892.47;5028790;28;20116;-79
2021/12/30 03:19:03;;;;;;;4.93;2.13;;;;;;;16.39;58.84;100885.44;5024818;28;20436;-79
2021/12/30 03:21:31;;;;;;;6.63;2.75;;;;;;;16.40;59.10;100898.09;5035438;28;20083;-79
2021/12/30 03:24:00;;;;;;;5.00;2.10;;;;;;;16.43;58.98;100893.22;5018832;28;20390;-78
2021/12/30 03:26:27;;;;;;;5.82;2.25;;;;;;;16.44;59.29;100888.59;5035317;28;20507;-78
2021/12/30 03:28:54;;;;;;;6.22;2.30;;;;;;;16.44;58.89;100886.72;5044187;28;20065;-79
2021/12/30 03:31:22;;;;;;;5.40;2.70;;;;;;;16.45;59.36;100885.72;5030467;28;20049;-79
2021/12/30 03:33:50;;;;;;;7.32;2.35;;;;;;;16.47;59.55;100878.22;5015071;28;20045;-79
2021/12/30 03:36:18;;;;;;;6.03;2.30;;;;;;;16.47;59.52;100886.44;5033092;28;20099;-78
2021/12/30 03:38:47;;;;;;;3.90;1.88;;;;;;;16.49;59.45;100875.34;5028585;28;20091;-79
2021/12/30 03:41:17;;;;;;;6.28;2.17;;;;;;;16.50;59.53;100875.19;5028983;28;20978;-79
2021/12/30 03:43:44;;;;;;;5.40;2.28;;;;;;;16.51;59.39;100895.25;5031531;28;20115;-79
2021/12/30 03:46:11;;;;;;;6.05;2.42;;;;;;;16.52;59.42;100886.91;5035573;28;20128;-78
2021/12/30 03:48:43;;;;;;;3.97;2.05;;;;;;;16.54;59.28;100889.50;5034483;28;20107;-78
2021/12/30 03:51:19;;;;;;;5.80;2.70;;;;;;;16.56;59.22;100888.34;5031375;28;20100;-79
2021/12/30 03:53:49;;;;;;;4.82;1.88;;;;;;;16.57;59.64;100883.72;5030178;28;20152;-78
2021/12/30 03:56:18;;;;;;;4.88;1.88;;;;;;;16.58;59.45;100883.59;5028284;28;20509;-78
2021/12/30 03:58:45;;;;;;;6.22;2.20;;;;;;;16.59;59.22;100888.06;5023364;28;20041;-78
2021/12/30 04:01:15;;;;;;;8.32;2.17;;;;;;;16.61;59.64;100888.84;5033553;28;20128;-78
2021/12/30 04:03:42;;;;;;;6.75;2.25;;;;;;;16.61;59.42;100879.75;5015058;28;20092;-79
2021/12/30 04:06:09;;;;;;;5.75;2.08;;;;;;;16.62;59.51;100887.84;5029877;28;20168;-79
2021/12/30 04:08:36;;;;;;;4.93;2.40;;;;;;;16.63;59.64;100889.56;5026357;28;20129;-79
2021/12/30 04:11:03;;;;;;;5.43;2.28;;;;;;;16.65;59.68;100889.41;5029913;28;20076;-79
2021/12/30 04:13:34;;;;;;;5.65;2.13;;;;;;;16.67;59.48;100898.38;5028978;28;20412;-79
2021/12/30 04:16:01;;;;;;;4.85;2.33;;;;;;;16.67;59.35;100901.97;5026282;28;20150;-79
2021/12/30 04:18:28;;;;;;;4.68;2.30;;;;;;;16.67;59.47;100896.50;5029215;28;20049;-79
2021/12/30 04:20:54;;;;;;;3.78;2.10;;;;;;;16.69;59.59;100891.75;5028165;28;20081;-79
2021/12/30 04:23:21;;;;;;;4.22;2.08;;;;;;;16.70;59.83;100889.88;5034092;28;20054;-79
2021/12/30 04:25:48;;;;;;;3.67;2.00;;;;;;;16.69;59.97;100894.47;5027064;28;20132;-79
2021/12/30 04:28:16;;;;;;;3.15;2.00;;;;;;;16.71;59.74;100892.47;5023029;28;20052;-79
2021/12/30 04:30:42;;;;;;;3.85;1.90;;;;;;;16.72;59.78;100887.81;5016135;28;20140;-78
2021/12/30 04:33:09;;;;;;;4.03;1.95;;;;;;;16.73;60.14;100890.44;5043435;28;20132;-79
2021/12/30 04:35:36;;;;;;;4.63;2.10;;;;;;;16.74;59.96;100892.16;5011475;28;20141;-79
2021/12/30 04:38:02;;;;;;;4.13;2.03;;;;;;;16.77;59.60;100892.91;5029586;28;20037;-79
2021/12/30 04:40:29;;;;;;;4.07;2.08;;;;;;;16.78;59.65;100895.50;5012664;28;20131;-78
2021/12/30 04:42:56;;;;;;;3.45;1.80;;;;;;;16.81;59.76;100891.59;5028749;28;20398;-79
2021/12/30 04:45:25;;;;;;;3.55;1.90;;;;;;;16.82;59.83;100894.19;5029693;28;20136;-79
2021/12/30 04:47:52;;;;;;;4.15;1.88;;;;;;;16.83;59.85;100895.94;5027477;28;20049;-78
2021/12/30 04:50:18;;;;;;;3.88;1.63;;;;;;;16.86;60.08;100894.81;5021132;28;20590;-79
2021/12/30 04:52:45;;;;;;;3.55;2.17;;;;;;;16.88;59.98;100890.91;5010932;28;20072;-79
2021/12/30 04:55:12;;;;;;;3.22;1.63;;;;;;;16.90;60.27;100888.00;5014379;28;20136;-78
2021/12/30 04:57:38;;;;;;;5.68;2.28;;;;;;;16.94;60.12;100892.22;5032726;28;20131;-79
2021/12/30 05:00:08;;;;;;;3.92;2.10;;;;;;;16.96;59.95;100888.31;5031542;28;20081;-79
2021/12/30 05:02:55;;;;;;;3.65;1.92;;;;;;;16.96;60.02;100890.19;5040863;28;20051;-79
2021/12/30 05:05:21;;;;;;;3.75;2.10;;;;;;;16.98;60.13;100900.00;5029879;28;20402;-79
2021/12/30 05:07:48;;;;;;;4.03;2.10;;;;;;;17.00;59.79;100906.22;5025762;28;20520;-79
2021/12/30 05:10:14;;;;;;;3.85;1.70;;;;;;;17.00;60.22;100914.44;5024913;28;20088;-79
2021/12/30 05:12:41;;;;;;;3.38;1.77;;;;;;;17.02;59.92;100909.69;5010234;28;20045;-79
2021/12/30 05:15:08;;;;;;;3.03;1.63;;;;;;;17.04;59.89;100899.47;5015274;28;20138;-79
2021/12/30 05:17:36;;;;;;;3.47;1.70;;;;;;;17.08;60.14;100902.75;5032637;28;20049;-79
2021/12/30 05:20:04;;;;;;;3.28;1.90;;;;;;;17.09;60.27;100899.88;5029775;28;20599;-79
2021/12/30 05:22:30;;;;;;;3.22;1.73;;;;;;;17.08;60.17;100900.88;5027340;28;20065;-79
2021/12/30 05:24:57;;;;;;;2.13;1.40;;;;;;;17.08;60.50;100911.84;5029242;28;20128;-79
2021/12/30 05:27:23;;;;;;;4.13;1.40;;;;;;;17.10;60.48;100909.84;5010615;28;20044;-78
2021/12/30 05:29:50;;;;;;;2.90;1.45;;;;;;;17.11;60.31;100913.47;5036239;28;20129;-78
2021/12/30 05:32:16;;;;;;;3.33;1.70;;;;;;;17.13;60.39;100911.41;5030684;28;20049;-79
2021/12/30 05:34:43;;;;;;;3.00;1.58;;;;;;;17.16;60.33;100915.75;5031883;28;20444;-79
2021/12/30 05:37:10;;;;;;;3.50;1.58;;;;;;;17.17;60.77;100914.75;5013536;28;20128;-80
2021/12/30 05:39:40;;;;;;;2.45;1.55;;;;;;;17.18;60.90;100913.75;5010315;28;20127;-79
2021/12/30 05:42:08;;;;;;;3.05;1.40;;;;;;;17.21;60.94;100922.56;5027776;28;20045;-80
2021/12/30 05:44:34;;;;;;;2.92;1.60;;;;;;;17.22;60.79;100921.53;5033295;28;20084;-78
2021/12/30 05:47:01;;;;;;;2.42;1.55;;;;;;;17.23;60.64;100916.91;5011136;28;20069;-78
2021/12/30 05:49:27;;;;;;;2.95;1.40;;;;;;;17.24;60.66;100914.03;5030289;28;20459;-79
2021/12/30 05:51:54;;;;;;;3.35;1.52;;;;;;;17.26;60.88;100916.63;5027860;28;20516;-79
2021/12/30 05:54:21;;;;;;;2.05;1.40;;;;;;;17.26;60.67;100914.75;5016161;28;20053;-79
2021/12/30 05:56:48;;;;;;;2.95;1.30;;;;;;;17.30;61.01;100915.31;5025145;28;20103;-79
2021/12/30 05:59:14;;;;;;;3.13;1.60;;;;;;;17.31;60.64;100915.19;5026940;28;20053;-78
2021/12/30 06:01:41;;;;;;;3.15;1.40;;;;;;;17.34;60.91;100917.66;5038040;28;20137;-79
2021/12/30 06:04:08;;;;;;;3.17;1.60;;;;;;;17.35;61.18;100926.75;5010922;28;20046;-79
2021/12/30 06:06:34;;;;;;;2.70;1.52;;;;;;;17.35;60.70;100927.63;5031441;28;20072;-79
2021/12/30 06:09:01;;;;;;;3.05;1.45;;;;;;;17.39;61.06;100928.19;5029322;28;20128;-79
2021/12/30 06:11:28;;;;;;;3.53;1.63;;;;;;;17.38;60.67;100927.31;5030727;28;20103;-78
2021/12/30 06:13:54;;;;;;;2.50;1.27;;;;;;;17.40;61.08;100929.91;5045256;28;20107;-79
2021/12/30 06:16:21;;;;;;;3.25;1.80;;;;;;;17.44;61.14;100948.72;5042282;28;20080;-79
2021/12/30 06:18:47;;;;;;;3.38;1.52;;;;;;;17.44;61.29;100948.72;5026726;28;20148;-78
2021/12/30 06:21:14;;;;;;;3.83;1.63;;;;;;;17.44;61.11;100945.97;5037239;28;20120;-79
2021/12/30 06:23:40;;;;;;;4.10;1.88;;;;;;;17.47;60.91;100950.28;5036359;28;20037;-79
2021/12/30 06:26:07;;;;;;;2.90;1.38;;;;;;;17.49;61.06;100957.38;5033121;28;20046;-79
2021/12/30 06:28:34;;;;;;;3.42;1.88;;;;;;;17.51;60.99;100957.22;5025023;28;20041;-80
2021/12/30 06:31:00;;;;;;;2.35;1.17;;;;;;;17.53;60.98;100959.84;5027611;28;20076;-79
2021/12/30 06:33:27;;;;;;;3.15;1.70;;;;;;;17.54;60.80;100959.69;5011773;28;20076;-79
2021/12/30 06:35:54;;;;;;;3.03;1.52;;;;;;;17.57;60.67;100969.50;5027983;28;20485;-78
2021/12/30 06:38:20;;;;;;;2.78;1.20;;;;;;;17.58;61.16;100971.25;5025835;28;20045;-79
2021/12/30 06:40:47;;;;;;;2.65;1.50;;;;;;;17.59;60.85;100962.00;5029837;28;20133;-80
2021/12/30 06:43:17;;;;;;;3.00;1.52;;;;;;;17.62;61.02;100965.38;5031272;28;20129;-79
2021/12/30 06:45:45;;;;;;;2.45;1.40;;;;;;;17.62;61.00;100964.50;5027723;28;20087;-79
2021/12/30 06:48:14;;;;;;;2.55;1.30;;;;;;;17.61;61.17;100966.34;5009561;28;20488;-79
2021/12/30 06:50:51;;;;;;;2.13;1.08;;;;;;;17.65;61.19;100969.69;5027261;28;20041;-78
2021/12/30 06:53:19;;;;;;;2.97;1.60;;;;;;;17.67;61.04;100967.66;5023224;28;20064;-79
2021/12/30 06:55:46;;;;;;;2.88;1.50;;;;;;;17.68;60.81;100967.53;5030162;28;20141;-79
2021/12/30 06:58:14;;;;;;;2.50;1.40;;;;;;;17.69;60.76;100968.41;5012266;28;20092;-79
2021/12/30 07:00:40;;;;;;;2.92;1.58;;;;;;;17.70;61.22;100971.00;5037590;28;20123;-79
2021/12/30 07:03:07;;;;;;;2.53;1.30;;;;;;;17.72;61.02;100974.44;5035958;28;20037;-79
2021/12/30 07:05:34;;;;;;;2.83;1.48;;;;;;;17.73;61.01;100973.44;5033816;28;20046;-79
2021/12/30 07:08:01;;;;;;;2.63;1.30;;;;;;;17.73;60.86;100964.31;5029713;28;20128;-79
2021/12/30 07:10:28;;;;;;;3.03;1.40;;;;;;;17.72;61.12;100966.22;5031180;28;20153;-78
2021/12/30 07:12:55;;;;;;;2.88;1.27;;;;;;;17.74;61.20;100985.28;5030421;28;20045;-79
2021/12/30 07:15:21;;;;;;;2.13;1.27;;;;;;;17.76;60.71;100977.78;5031126;28;20084;-79
2021/12/30 07:17:52;;;;;;;2.20;1.30;;;;;;;17.77;60.91;100974.91;5029998;28;20056;-79
2021/12/30 07:20:19;;;;;;;1.85;1.10;;;;;;;17.78;60.66;100984.00;5031021;28;20056;-78
2021/12/30 07:22:46;;;;;;;3.35;1.27;;;;;;;17.80;61.08;100988.31;5029788;28;20049;-79
2021/12/30 07:25:16;;;;;;;2.22;1.30;;;;;;;17.79;61.00;100986.56;5049983;28;20110;-79
2021/12/30 07:27:46;;;;;;;2.13;1.35;;;;;;;17.82;60.86;100996.41;5035353;28;20041;-79
2021/12/30 07:30:13;;;;;;;2.47;1.35;;;;;;;17.83;60.79;100996.28;5036680;28;20152;-79
2021/12/30 07:32:40;;;;;;;2.45;1.20;;;;;;;17.83;60.77;101007.25;5037087;28;20489;-78
2021/12/30 07:35:07;;;;;;;1.92;1.30;;;;;;;17.84;60.66;101013.63;5026239;28;20045;-79
2021/12/30 07:37:33;;;;;;;1.80;1.10;;;;;;;17.83;61.00;101018.25;5028485;28;20064;-79
2021/12/30 07:40:00;;;;;;;2.33;1.20;;;;;;;17.84;60.80;101027.34;5028918;28;20095;-79
2021/12/30 07:42:27;;;;;;;2.50;1.48;;;;;;;17.86;60.63;101033.59;5023165;28;20122;-79
2021/12/30 07:44:53;;;;;;;2.92;1.30;;;;;;;17.84;60.89;101035.59;5033252;28;20084;-79
2021/12/30 07:47:20;;;;;;;1.98;1.20;;;;;;;17.86;61.08;101036.31;5027156;28;20136;-79
2021/12/30 07:49:47;;;;;;;2.05;1.20;;;;;;;17.87;60.66;101049.88;5031432;28;20049;-79
2021/12/30 07:52:15;;;;;;;1.13;1.00;;;;;;;17.87;60.66;101052.63;5027651;28;20525;-79
2021/12/30 07:54:43;;;;;;;1.40;0.93;;;;;;;17.88;60.96;101056.25;5030247;28;20042;-79
2021/12/30 07:57:20;;;;;;;1.52;1.00;;;;;;;17.90;60.89;101062.47;5029426;28;20041;-79
2021/12/30 07:59:49;;;;;;;1.30;0.90;;;;;;;17.90;60.98;101069.84;5031210;28;20073;-79
2021/12/30 08:02:15;;;;;;;1.13;1.00;;;;;;;17.88;61.01;101072.72;5029636;28;20146;-79
2021/12/30 08:04:42;;;;;;;1.85;1.00;;;;;;;17.88;61.01;101076.34;5013543;28;20046;-79
2021/12/30 08:07:09;;;;;;;2.42;1.10;;;;;;;17.88;61.00;101087.34;5027117;28;20073;-80
2021/12/30 08:09:36;;;;;;;1.10;0.85;;;;;;;17.90;60.98;101081.69;5030480;28;20140;-79
2021/12/30 08:12:03;;;;;;;2.10;1.30;;;;;;;17.89;60.55;101088.22;5029522;28;20069;-79
2021/12/30 08:14:30;;;;;;;0.95;0.80;;;;;;;17.91;60.81;101093.56;5023641;28;20084;-78
2021/12/30 08:16:56;;;;;;;1.10;0.80;;;;;;;17.90;60.88;101084.44;5032098;28;20520;-78
2021/12/30 08:19:23;;;;;;;1.30;1.00;;;;;;;17.92;60.85;101081.56;5017839;28;20394;-80
2021/12/30 08:21:50;;;;;;;1.45;0.85;;;;;;;17.93;60.35;101095.16;5036661;28;20398;-80
2021/12/30 08:24:17;;;;;;;0.90;0.90;;;;;;;17.92;60.73;101093.44;5028216;28;20059;-79
2021/12/30 08:27:04;;;;;;;1.63;0.80;;;;;;;17.93;60.65;101099.78;5032994;28;20048;-79
2021/12/30 08:29:31;;;;;;;1.17;0.85;;;;;;;17.92;60.66;101098.91;5032886;28;20080;-79
2021/12/30 08:31:58;;;;;;;1.48;1.00;;;;;;;17.95;60.45;101103.28;5029110;28;20084;-78
2021/12/30 08:34:25;;;;;;;1.25;0.98;;;;;;;17.95;60.91;101106.88;5032471;28;20132;-78
2021/12/30 08:36:51;;;;;;;1.00;0.82;;;;;;;17.94;60.51;101102.41;5028771;28;20084;-78
2021/12/30 08:39:18;;;;;;;1.10;0.90;;;;;;;17.95;61.07;101106.00;5011375;28;20034;-79
2021/12/30 08:41:45;;;;;;;1.00;0.90;;;;;;;17.96;60.68;101110.47;5023805;28;20044;-79
2021/12/30 08:44:11;;;;;;;1.48;0.90;;;;;;;17.95;60.90;101114.25;5028061;28;20450;-79
2021/12/30 08:46:38;;;;;;;1.40;0.90;;;;;;;17.95;60.74;101114.25;5035567;28;20053;-79
2021/12/30 08:49:05;;;;;;;0.90;0.80;;;;;;;17.93;60.77;101122.63;5036972;28;20041;-80
2021/12/30 08:51:31;;;;;;;1.75;0.93;;;;;;;17.94;60.90;101126.25;5032302;28;20114;-79
2021/12/30 08:53:58;;;;;;;1.42;1.02;;;;;;;17.96;60.87;101129.69;5029290;28;20045;-79
2021/12/30 08:56:25;;;;;;;1.85;0.90;;;;;;;17.94;60.49;101129.88;5043232;28;20124;-79
2021/12/30 08:58:51;;;;;;;1.88;0.90;;;;;;;17.94;60.60;101129.88;5030575;28;20565;-79
2021/12/30 09:01:18;;;;;;;1.10;0.93;;;;;;;17.96;60.64;101132.44;5029883;28;20572;-78
2021/12/30 09:03:45;;;;;;;2.25;0.90;;;;;;;17.95;60.82;101138.97;5030065;28;20067;-79
2021/12/30 09:06:12;;;;;;;1.98;0.82;;;;;;;17.94;60.85;101140.00;5030965;28;20048;-80
2021/12/30 09:08:38;;;;;;;0.95;0.70;;;;;;;17.94;60.95;101137.25;5029147;28;20101;-79
2021/12/30 09:11:05;;;;;;;1.40;0.95;;;;;;;17.94;61.11;101134.50;5028081;28;20077;-80
2021/12/30 09:13:32;;;;;;;1.60;0.90;;;;;;;17.94;60.75;101118.88;5028378;28;20068;-81
2021/12/30 09:15:58;;;;;;;0.80;0.70;;;;;;;17.95;60.82;101125.25;5028271;28;20061;-79
2021/12/30 09:18:25;;;;;;;1.35;0.90;;;;;;;17.95;60.83;101128.88;5029280;28;20126;-80
2021/12/30 09:20:52;;;;;;;1.02;0.80;;;;;;;17.96;61.20;101140.69;5025303;28;20091;-80
2021/12/30 09:23:19;;;;;;;1.25;0.90;;;;;;;17.97;61.10;101135.06;5028481;28;20074;-80
2021/12/30 09:25:45;;;;;;;1.73;0.90;;;;;;;17.98;60.89;101146.91;5028691;28;20084;-78
2021/12/30 09:28:13;;;;;;;1.30;0.80;;;;;;;17.99;60.90;101145.91;5028300;28;20041;-81
2021/12/30 09:30:42;;;;;;;1.60;0.85;;;;;;;18.01;61.05;101141.16;5028890;28;20046;-81
2021/12/30 09:33:09;;;;;;;1.17;0.82;;;;;;;18.02;60.96;101160.25;5041354;28;20140;-79
2021/12/30 09:35:36;;;;;;;2.15;0.85;;;;;;;18.04;61.34;101168.31;5028501;28;20132;-80
2021/12/30 09:38:03;;;;;;;1.33;1.00;;;;;;;18.05;61.44;101164.56;5028078;28;20049;-80
2021/12/30 09:40:32;;;;;;;1.38;0.80;;;;;;;18.08;61.26;101167.91;5013630;28;20053;-80
2021/12/30 09:43:04;;;;;;;1.38;0.90;;;;;;;18.13;60.86;101171.06;5040574;28;20104;-80
2021/12/30 09:45:36;;;;;;;1.02;0.77;;;;;;;18.15;61.26;101163.56;5030562;28;20104;-80
2021/12/30 09:48:07;;;;;;;0.68;0.60;;;;;;;18.16;61.20;101175.44;5009200;28;20289;-80
2021/12/30 09:50:44;;;;;;;1.17;0.90;;;;;;;18.21;60.61;101175.84;5035260;28;20053;-80
2021/12/30 09:53:11;;;;;;;2.17;0.90;;;;;;;18.22;60.49;101174.84;5028042;28;20041;-79
2021/12/30 09:55:39;;;;;;;1.13;0.80;;;;;;;18.22;60.58;101172.97;5028445;28;20053;-80
2021/12/30 09:58:09;;;;;;;0.60;0.60;;;;;;;18.23;60.96;101168.34;5010635;28;20048;-79
2021/12/30 10:00:35;;;;;;;1.33;0.68;;;;;;;18.24;60.48;101168.22;5010623;28;20529;-80
2021/12/30 10:03:04;;;;;;;1.17;0.65;;;;;;;18.23;60.87;101163.72;5028056;28;20053;-79
2021/12/30 10:05:37;;;;;;;3.20;0.88;;;;;;;18.26;60.54;101162.56;5011039;28;20463;-80
2021/12/30 10:08:20;;;;;;;1.42;0.90;;;;;;;18.31;60.67;101162.13;5012189;28;20045;-79
2021/12/30 10:10:49;;;;;;;1.30;0.80;;;;;;;18.27;60.62;101158.81;5023379;28;20073;-79
2021/12/30 10:13:30;;;;;;;1.13;0.80;;;;;;;18.30;60.67;101153.00;5029009;28;20527;-80
2021/12/30 10:15:58;;;;;;;2.03;1.00;;;;;;;18.30;60.48;101157.63;5027911;28;20103;-80
2021/12/30 10:18:58;;;;;;;1.83;1.10;;;;;;;18.30;60.34;101168.63;5024810;28;20104;-80
2021/12/30 10:21:25;;;;;;;2.92;1.00;;;;;;;18.29;60.90;101166.88;5037203;28;20053;-79
2021/12/30 10:23:58;;;;;;;1.33;0.85;;;;;;;18.31;60.89;101176.72;5030023;28;20041;-79
2021/12/30 10:26:26;;;;;;;1.38;0.90;;;;;;;18.33;60.55;101180.22;5032841;28;20579;-78
2021/12/30 10:28:58;;;;;;;1.30;0.95;;;;;;;18.36;60.58;101184.56;5029855;28;20080;-79
2021/12/30 10:31:28;;;;;;;1.42;1.00;;;;;;;18.36;60.80;101198.31;5024384;28;20108;-78
2021/12/30 10:33:59;;;;;;;1.50;1.00;;;;;;;18.37;60.59;101200.03;5028914;28;20505;-78
2021/12/30 10:36:30;;;;;;;1.73;1.10;;;;;;;18.38;60.68;101197.13;5030045;28;20230;-79
2021/12/30 10:39:14;;;;;;;1.63;1.00;;;;;;;18.38;60.09;101194.38;5028047;28;20088;-79
2021/12/30 10:41:40;;;;;;;2.15;1.10;;;;;;;18.40;60.54;101194.25;5023492;28;20513;-79
2021/12/30 10:44:07;;;;;;;1.38;1.08;;;;;;;18.43;60.38;101194.84;5025765;28;20385;-79
2021/12/30 10:46:34;;;;;;;1.17;0.90;;;;;;;18.44;59.96;101195.72;5020249;28;20064;-78
2021/12/30 10:49:01;;;;;;;1.27;1.00;;;;;;;18.41;60.31;101199.59;5022527;28;20103;-79
2021/12/30 10:51:37;;;;;;;1.45;0.93;;;;;;;18.45;60.48;101189.16;5030640;28;20053;-79
2021/12/30 10:54:28;;;;;;;2.53;1.08;;;;;;;18.42;60.27;101212.34;5028835;28;20073;-83
2021/12/30 10:57:07;;;;;;;1.42;0.90;;;;;;;18.47;60.19;101193.50;5032713;28;20055;-78
2021/12/30 10:59:46;;;;;;;1.83;1.20;;;;;;;18.48;59.94;101191.63;5024333;28;20061;-79
2021/12/30 11:02:27;;;;;;;2.72;1.00;;;;;;;18.49;60.02;101196.13;5036881;28;20146;-80
2021/12/30 11:04:58;;;;;;;1.95;0.90;;;;;;;18.49;60.04;101196.13;5026876;28;20483;-79
2021/12/30 11:07:49;;;;;;;2.55;1.20;;;;;;;18.48;59.72;101194.38;5033374;28;20061;-79
2021/12/30 11:10:27;;;;;;;1.50;1.10;;;;;;;18.49;60.25;101193.38;5014166;28;20045;-79
2021/12/30 11:12:53;;;;;;;2.10;1.10;;;;;;;18.49;60.28;101201.63;5029602;28;20484;-79
2021/12/30 11:15:21;;;;;;;2.40;1.30;;;;;;;18.54;59.92;101193.78;5027323;28;20444;-79
2021/12/30 11:17:48;;;;;;;2.42;1.20;;;;;;;18.52;59.69;101202.22;5028703;28;20583;-80
2021/12/30 11:20:20;;;;;;;2.95;1.35;;;;;;;18.55;59.68;101204.66;5040671;28;20095;-78
2021/12/30 11:22:48;;;;;;;2.28;1.20;;;;;;;18.57;60.23;101199.06;5027303;28;20045;-79
2021/12/30 11:25:20;;;;;;;2.22;1.30;;;;;;;18.58;59.67;101198.03;5033841;28;20503;-79
2021/12/30 11:27:47;;;;;;;2.55;1.30;;;;;;;18.57;59.85;101193.56;5016477;28;20073;-79
2021/12/30 11:30:17;;;;;;;2.53;1.40;;;;;;;18.61;59.50;101176.59;5020512;28;20862;-79
2021/12/30 11:32:48;;;;;;;3.80;1.40;;;;;;;18.64;59.12;101186.44;5004699;28;20041;-80